sensor_id;sensor_type;location;lat;lon;timestamp;pressure;altitude;pressure_sealevel;temperature;humidity
70127;BME280;57491;42.694;23.314;2022-07-10T00:02:17;95023.13;;;17.88;70.00
70127;BME280;57491;42.694;23.314;2022-07-10T00:04:44;95021.28;;;17.88;69.88
70127;BME280;57491;42.694;23.314;2022-07-10T00:07:11;95018.78;;;17.93;69.78
70127;BME280;57491;42.694;23.314;2022-07-10T00:09:39;95022.22;;;17.94;69.63
70127;BME280;57491;42.694;23.314;2022-07-10T00:12:06;94997.38;;;17.78;69.61
70127;BME280;57491;42.694;23.314;2022-07-10T00:14:34;94983.25;;;17.61;69.86
70127;BME280;57491;42.694;23.314;2022-07-10T00:17:01;95021.38;;;17.81;70.00
70127;BME280;57491;42.694;23.314;2022-07-10T00:19:30;95019.56;;;17.82;70.00
70127;BME280;57491;42.694;23.314;2022-07-10T00:21:57;95014.16;;;17.77;70.33
70127;BME280;57491;42.694;23.314;2022-07-10T00:24:24;95017.50;;;17.84;69.93
70127;BME280;57491;42.694;23.314;2022-07-10T00:26:51;95017.28;;;17.86;69.90
70127;BME280;57491;42.694;23.314;2022-07-10T00:29:18;94986.72;;;17.73;70.51
70127;BME280;57491;42.694;23.314;2022-07-10T00:31:45;94997.72;;;17.81;69.99
70127;BME280;57491;42.694;23.314;2022-07-10T00:34:12;95006.16;;;17.83;69.70
70127;BME280;57491;42.694;23.314;2022-07-10T00:36:41;95009.94;;;17.76;70.42
70127;BME280;57491;42.694;23.314;2022-07-10T00:39:09;94997.25;;;17.73;70.00
70127;BME280;57491;42.694;23.314;2022-07-10T00:41:36;95010.38;;;17.73;70.73
70127;BME280;57491;42.694;23.314;2022-07-10T00:44:04;94996.38;;;17.61;70.37
70127;BME280;57491;42.694;23.314;2022-07-10T00:46:31;94993.75;;;17.61;70.98
70127;BME280;57491;42.694;23.314;2022-07-10T00:48:59;95009.78;;;17.71;70.39
70127;BME280;57491;42.694;23.314;2022-07-10T00:51:29;94995.63;;;17.72;70.37
70127;BME280;57491;42.694;23.314;2022-07-10T00:53:58;94991.41;;;17.71;70.63
70127;BME280;57491;42.694;23.314;2022-07-10T00:56:27;94989.09;;;17.74;70.70
70127;BME280;57491;42.694;23.314;2022-07-10T00:58:54;94989.56;;;17.71;70.49
70127;BME280;57491;42.694;23.314;2022-07-10T01:01:21;94984.53;;;17.70;70.64
70127;BME280;57491;42.694;23.314;2022-07-10T01:03:49;94974.69;;;17.65;70.07
70127;BME280;57491;42.694;23.314;2022-07-10T01:06:16;94986.00;;;17.66;70.41
70127;BME280;57491;42.694;23.314;2022-07-10T01:08:44;94988.28;;;17.62;70.49
70127;BME280;57491;42.694;23.314;2022-07-10T01:11:14;94990.56;;;17.59;70.88
70127;BME280;57491;42.694;23.314;2022-07-10T01:13:42;94987.97;;;17.52;70.54
70127;BME280;57491;42.694;23.314;2022-07-10T01:16:10;94985.59;;;17.51;70.92
70127;BME280;57491;42.694;23.314;2022-07-10T01:18:37;94982.84;;;17.46;71.26
70127;BME280;57491;42.694;23.314;2022-07-10T01:21:06;94974.47;;;17.37;71.17
70127;BME280;57491;42.694;23.314;2022-07-10T01:23:33;94985.34;;;17.52;70.84
70127;BME280;57491;42.694;23.314;2022-07-10T01:26:00;94982.97;;;17.51;70.67
70127;BME280;57491;42.694;23.314;2022-07-10T01:28:29;94981.72;;;17.53;70.74
70127;BME280;57491;42.694;23.314;2022-07-10T01:30:57;94982.72;;;17.52;71.01
70127;BME280;57491;42.694;23.314;2022-07-10T01:33:24;94980.69;;;17.54;70.53
70127;BME280;57491;42.694;23.314;2022-07-10T01:35:51;94971.41;;;17.52;70.79
70127;BME280;57491;42.694;23.314;2022-07-10T01:38:19;94965.81;;;17.48;70.78
70127;BME280;57491;42.694;23.314;2022-07-10T01:40:47;94967.19;;;17.51;71.03
70127;BME280;57491;42.694;23.314;2022-07-10T01:43:14;94965.13;;;17.53;70.60
70127;BME280;57491;42.694;23.314;2022-07-10T01:45:41;94957.84;;;17.55;70.88
70127;BME280;57491;42.694;23.314;2022-07-10T01:48:09;94957.91;;;17.48;70.41
70127;BME280;57491;42.694;23.314;2022-07-10T01:50:36;94953.59;;;17.54;70.48
70127;BME280;57491;42.694;23.314;2022-07-10T01:53:04;94962.00;;;17.62;70.05
70127;BME280;57491;42.694;23.314;2022-07-10T01:55:33;94959.94;;;17.64;70.05
70127;BME280;57491;42.694;23.314;2022-07-10T01:58:00;94958.84;;;17.54;70.09
70127;BME280;57491;42.694;23.314;2022-07-10T02:00:27;94954.06;;;17.51;70.54
70127;BME280;57491;42.694;23.314;2022-07-10T02:02:55;94964.78;;;17.49;70.65
70127;BME280;57491;42.694;23.314;2022-07-10T02:05:39;94937.44;;;17.38;71.15
70127;BME280;57491;42.694;23.314;2022-07-10T02:08:06;94948.41;;;17.47;70.51
70127;BME280;57491;42.694;23.314;2022-07-10T02:10:35;94951.97;;;17.41;70.54
70127;BME280;57491;42.694;23.314;2022-07-10T02:13:02;94950.88;;;17.30;70.79
70127;BME280;57491;42.694;23.314;2022-07-10T02:15:30;94948.84;;;17.32;70.74
70127;BME280;57491;42.694;23.314;2022-07-10T02:17:57;94949.53;;;17.28;70.73
70127;BME280;57491;42.694;23.314;2022-07-10T02:20:24;94947.56;;;17.23;71.12
70127;BME280;57491;42.694;23.314;2022-07-10T02:22:51;94951.81;;;17.24;71.17
70127;BME280;57491;42.694;23.314;2022-07-10T02:25:18;94952.56;;;17.25;71.52
70127;BME280;57491;42.694;23.314;2022-07-10T02:27:47;94953.25;;;17.20;71.37
70127;BME280;57491;42.694;23.314;2022-07-10T02:30:14;94949.59;;;17.21;71.49
70127;BME280;57491;42.694;23.314;2022-07-10T02:32:41;94946.16;;;17.21;71.10
70127;BME280;57491;42.694;23.314;2022-07-10T02:35:09;94939.75;;;17.17;71.48
70127;BME280;57491;42.694;23.314;2022-07-10T02:37:36;94936.91;;;17.18;71.05
70127;BME280;57491;42.694;23.314;2022-07-10T02:40:04;94952.94;;;17.28;71.05
70127;BME280;57491;42.694;23.314;2022-07-10T02:42:31;94947.31;;;17.25;70.76
70127;BME280;57491;42.694;23.314;2022-07-10T02:45:00;94939.16;;;17.33;70.69
70127;BME280;57491;42.694;23.314;2022-07-10T02:47:27;94947.25;;;17.31;70.63
70127;BME280;57491;42.694;23.314;2022-07-10T02:49:54;94961.00;;;17.45;71.21
70127;BME280;57491;42.694;23.314;2022-07-10T02:52:21;94926.31;;;17.25;70.95
70127;BME280;57491;42.694;23.314;2022-07-10T02:54:48;94962.47;;;17.41;70.22
70127;BME280;57491;42.694;23.314;2022-07-10T02:57:16;94950.47;;;17.33;69.98
70127;BME280;57491;42.694;23.314;2022-07-10T02:59:43;94969.63;;;17.34;70.57
70127;BME280;57491;42.694;23.314;2022-07-10T03:02:12;94970.69;;;17.33;70.33
70127;BME280;57491;42.694;23.314;2022-07-10T03:04:39;94968.19;;;17.38;70.69
70127;BME280;57491;42.694;23.314;2022-07-10T03:07:06;94975.38;;;17.42;70.28
70127;BME280;57491;42.694;23.314;2022-07-10T03:09:33;94978.25;;;17.41;70.81
70127;BME280;57491;42.694;23.314;2022-07-10T03:12:00;94980.28;;;17.39;70.06
70127;BME280;57491;42.694;23.314;2022-07-10T03:14:27;94979.72;;;17.37;70.22
70127;BME280;57491;42.694;23.314;2022-07-10T03:16:55;94976.63;;;17.40;70.18
70127;BME280;57491;42.694;23.314;2022-07-10T03:19:23;94974.47;;;17.37;69.84
70127;BME280;57491;42.694;23.314;2022-07-10T03:21:50;94988.16;;;17.39;70.08
70127;BME280;57491;42.694;23.314;2022-07-10T03:24:17;94982.22;;;17.32;70.14
70127;BME280;57491;42.694;23.314;2022-07-10T03:26:45;94974.63;;;17.24;69.82
70127;BME280;57491;42.694;23.314;2022-07-10T03:29:12;94979.94;;;17.35;70.04
70127;BME280;57491;42.694;23.314;2022-07-10T03:31:39;94983.72;;;17.39;69.73
70127;BME280;57491;42.694;23.314;2022-07-10T03:34:06;94982.91;;;17.39;69.37
70127;BME280;57491;42.694;23.314;2022-07-10T03:36:35;94983.16;;;17.37;70.21
70127;BME280;57491;42.694;23.314;2022-07-10T03:39:02;94971.84;;;17.37;70.16
70127;BME280;57491;42.694;23.314;2022-07-10T03:41:29;94984.72;;;17.38;70.08
70127;BME280;57491;42.694;23.314;2022-07-10T03:43:57;94976.84;;;17.38;70.14
70127;BME280;57491;42.694;23.314;2022-07-10T03:46:24;94979.41;;;17.45;70.06
70127;BME280;57491;42.694;23.314;2022-07-10T03:48:51;94976.56;;;17.47;69.91
70127;BME280;57491;42.694;23.314;2022-07-10T03:51:18;94978.38;;;17.46;69.86
70127;BME280;57491;42.694;23.314;2022-07-10T03:53:47;94974.28;;;17.50;70.22
70127;BME280;57491;42.694;23.314;2022-07-10T03:56:14;94980.09;;;17.52;69.82
70127;BME280;57491;42.694;23.314;2022-07-10T03:59:01;94974.63;;;17.54;69.79
70127;BME280;57491;42.694;23.314;2022-07-10T04:01:27;94974.34;;;17.62;69.34
70127;BME280;57491;42.694;23.314;2022-07-10T04:03:54;94972.91;;;17.77;68.92
70127;BME280;57491;42.694;23.314;2022-07-10T04:06:21;94965.94;;;17.83;68.36
70127;BME280;57491;42.694;23.314;2022-07-10T04:08:50;94963.88;;;17.85;68.64
70127;BME280;57491;42.694;23.314;2022-07-10T04:11:17;94950.16;;;17.83;68.76
70127;BME280;57491;42.694;23.314;2022-07-10T04:13:44;94965.28;;;17.99;68.30
70127;BME280;57491;42.694;23.314;2022-07-10T04:16:12;94962.19;;;18.02;67.86
70127;BME280;57491;42.694;23.314;2022-07-10T04:18:39;94932.66;;;17.89;68.06
70127;BME280;57491;42.694;23.314;2022-07-10T04:21:07;94946.84;;;18.11;68.05
70127;BME280;57491;42.694;23.314;2022-07-10T04:23:34;94942.50;;;18.16;67.64
70127;BME280;57491;42.694;23.314;2022-07-10T04:26:03;94952.94;;;18.35;66.97
70127;BME280;57491;42.694;23.314;2022-07-10T04:28:30;94949.81;;;18.38;66.96
70127;BME280;57491;42.694;23.314;2022-07-10T04:30:57;94945.00;;;18.46;66.87
70127;BME280;57491;42.694;23.314;2022-07-10T04:33:25;94946.19;;;18.50;66.53
70127;BME280;57491;42.694;23.314;2022-07-10T04:35:52;94939.31;;;18.61;65.51
70127;BME280;57491;42.694;23.314;2022-07-10T04:38:19;94955.22;;;18.78;65.39
70127;BME280;57491;42.694;23.314;2022-07-10T04:40:46;94957.59;;;18.79;65.58
70127;BME280;57491;42.694;23.314;2022-07-10T04:43:15;94956.69;;;18.85;64.50
70127;BME280;57491;42.694;23.314;2022-07-10T04:45:42;94952.75;;;18.88;65.39
70127;BME280;57491;42.694;23.314;2022-07-10T04:48:11;94954.00;;;18.97;64.80
70127;BME280;57491;42.694;23.314;2022-07-10T04:50:38;94941.84;;;18.96;64.28
70127;BME280;57491;42.694;23.314;2022-07-10T04:53:05;94953.84;;;19.15;63.76
70127;BME280;57491;42.694;23.314;2022-07-10T04:55:32;94951.06;;;19.22;63.29
70127;BME280;57491;42.694;23.314;2022-07-10T04:58:01;94955.97;;;19.30;62.99
70127;BME280;57491;42.694;23.314;2022-07-10T05:00:29;94954.34;;;19.29;62.72
70127;BME280;57491;42.694;23.314;2022-07-10T05:02:56;94952.44;;;19.24;62.97
70127;BME280;57491;42.694;23.314;2022-07-10T05:05:24;94952.09;;;19.21;62.99
70127;BME280;57491;42.694;23.314;2022-07-10T05:07:51;94936.41;;;19.14;63.42
70127;BME280;57491;42.694;23.314;2022-07-10T05:10:19;94953.81;;;19.27;62.61
70127;BME280;57491;42.694;23.314;2022-07-10T05:12:46;94951.50;;;19.30;62.95
70127;BME280;57491;42.694;23.314;2022-07-10T05:15:14;94946.78;;;19.44;62.78
70127;BME280;57491;42.694;23.314;2022-07-10T05:17:42;94950.31;;;19.49;61.90
70127;BME280;57491;42.694;23.314;2022-07-10T05:20:10;94948.16;;;19.63;61.57
70127;BME280;57491;42.694;23.314;2022-07-10T05:22:37;94941.47;;;19.72;61.62
70127;BME280;57491;42.694;23.314;2022-07-10T05:25:05;94949.69;;;19.76;61.23
70127;BME280;57491;42.694;23.314;2022-07-10T05:27:32;94955.19;;;19.74;61.26
70127;BME280;57491;42.694;23.314;2022-07-10T05:29:59;94959.75;;;19.79;61.67
70127;BME280;57491;42.694;23.314;2022-07-10T05:32:27;94953.69;;;19.78;61.38
70127;BME280;57491;42.694;23.314;2022-07-10T05:34:57;94951.00;;;20.07;61.45
70127;BME280;57491;42.694;23.314;2022-07-10T05:37:24;94934.59;;;20.21;60.54
70127;BME280;57491;42.694;23.314;2022-07-10T05:39:51;94946.66;;;20.72;59.42
70127;BME280;57491;42.694;23.314;2022-07-10T05:42:19;94944.66;;;20.79;58.30
70127;BME280;57491;42.694;23.314;2022-07-10T05:44:46;94946.88;;;20.87;57.50
70127;BME280;57491;42.694;23.314;2022-07-10T05:47:13;94934.25;;;20.73;57.24
70127;BME280;57491;42.694;23.314;2022-07-10T05:49:40;94941.69;;;20.76;57.12
70127;BME280;57491;42.694;23.314;2022-07-10T05:52:08;94939.09;;;20.59;57.48
70127;BME280;57491;42.694;23.314;2022-07-10T05:54:36;94952.25;;;20.76;57.29
70127;BME280;57491;42.694;23.314;2022-07-10T05:57:03;94945.19;;;20.81;56.99
70127;BME280;57491;42.694;23.314;2022-07-10T05:59:32;94945.69;;;21.00;56.74
70127;BME280;57491;42.694;23.314;2022-07-10T06:02:00;94944.72;;;21.28;56.28
70127;BME280;57491;42.694;23.314;2022-07-10T06:04:29;94945.78;;;21.80;55.88
70127;BME280;57491;42.694;23.314;2022-07-10T06:06:56;94927.75;;;21.77;53.48
70127;BME280;57491;42.694;23.314;2022-07-10T06:09:24;94943.81;;;21.93;53.20
70127;BME280;57491;42.694;23.314;2022-07-10T06:11:54;94949.13;;;21.98;54.01
70127;BME280;57491;42.694;23.314;2022-07-10T06:14:21;94946.31;;;22.09;53.01
70127;BME280;57491;42.694;23.314;2022-07-10T06:16:48;94931.03;;;21.90;52.79
70127;BME280;57491;42.694;23.314;2022-07-10T06:19:15;94932.88;;;21.89;52.69
70127;BME280;57491;42.694;23.314;2022-07-10T06:21:44;94934.69;;;22.15;52.15
70127;BME280;57491;42.694;23.314;2022-07-10T06:24:11;94930.53;;;22.24;52.25
70127;BME280;57491;42.694;23.314;2022-07-10T06:26:39;94922.41;;;22.36;52.25
70127;BME280;57491;42.694;23.314;2022-07-10T06:29:06;94937.28;;;22.42;51.52
70127;BME280;57491;42.694;23.314;2022-07-10T06:31:34;94932.03;;;22.15;51.34
70127;BME280;57491;42.694;23.314;2022-07-10T06:34:01;94937.63;;;22.14;51.69
70127;BME280;57491;42.694;23.314;2022-07-10T06:36:28;94931.84;;;22.22;50.99
70127;BME280;57491;42.694;23.314;2022-07-10T06:38:55;94937.25;;;22.37;50.74
70127;BME280;57491;42.694;23.314;2022-07-10T06:41:22;94935.69;;;22.41;50.69
70127;BME280;57491;42.694;23.314;2022-07-10T06:43:51;94935.50;;;22.58;50.54
70127;BME280;57491;42.694;23.314;2022-07-10T06:46:18;94931.50;;;22.50;50.72
70127;BME280;57491;42.694;23.314;2022-07-10T06:48:45;94935.56;;;22.26;50.56
70127;BME280;57491;42.694;23.314;2022-07-10T06:51:11;94930.19;;;22.11;51.42
70127;BME280;57491;42.694;23.314;2022-07-10T06:53:39;94927.72;;;21.72;52.01
70127;BME280;57491;42.694;23.314;2022-07-10T06:56:06;94927.50;;;21.79;52.65
70127;BME280;57491;42.694;23.314;2022-07-10T06:58:33;94931.66;;;21.97;52.93
70127;BME280;57491;42.694;23.314;2022-07-10T07:01:02;94914.34;;;22.21;52.46
70127;BME280;57491;42.694;23.314;2022-07-10T07:03:29;94929.88;;;22.44;50.15
70127;BME280;57491;42.694;23.314;2022-07-10T07:05:56;94924.81;;;22.43;50.91
70127;BME280;57491;42.694;23.314;2022-07-10T07:08:24;94926.69;;;22.47;50.64
70127;BME280;57491;42.694;23.314;2022-07-10T07:10:51;94906.44;;;22.26;50.87
70127;BME280;57491;42.694;23.314;2022-07-10T07:13:18;94928.56;;;22.47;51.02
70127;BME280;57491;42.694;23.314;2022-07-10T07:15:45;94921.19;;;22.54;50.61
70127;BME280;57491;42.694;23.314;2022-07-10T07:18:22;94927.53;;;22.53;50.87
70127;BME280;57491;42.694;23.314;2022-07-10T07:20:57;94922.13;;;22.80;50.98
70127;BME280;57491;42.694;23.314;2022-07-10T07:23:42;94888.81;;;22.99;49.96
70127;BME280;57491;42.694;23.314;2022-07-10T07:26:09;94920.81;;;23.54;49.66
70127;BME280;57491;42.694;23.314;2022-07-10T07:28:36;94914.47;;;23.86;48.78
70127;BME280;57491;42.694;23.314;2022-07-10T07:31:04;94904.94;;;24.00;47.96
70127;BME280;57491;42.694;23.314;2022-07-10T07:33:33;94909.44;;;24.20;47.41
70127;BME280;57491;42.694;23.314;2022-07-10T07:36:00;94902.28;;;24.25;47.38
70127;BME280;57491;42.694;23.314;2022-07-10T07:38:27;94911.53;;;24.33;47.02
70127;BME280;57491;42.694;23.314;2022-07-10T07:40:54;94911.25;;;24.50;47.23
70127;BME280;57491;42.694;23.314;2022-07-10T07:43:21;94900.88;;;24.58;46.53
70127;BME280;57491;42.694;23.314;2022-07-10T07:45:48;94903.00;;;24.56;46.42
70127;BME280;57491;42.694;23.314;2022-07-10T07:48:15;94906.38;;;24.87;46.42
70127;BME280;57491;42.694;23.314;2022-07-10T07:50:44;94904.91;;;25.20;45.38
70127;BME280;57491;42.694;23.314;2022-07-10T07:53:12;94905.13;;;25.33;44.63
70127;BME280;57491;42.694;23.314;2022-07-10T07:55:39;94903.72;;;25.41;43.88
70127;BME280;57491;42.694;23.314;2022-07-10T07:58:08;94900.78;;;25.48;42.80
70127;BME280;57491;42.694;23.314;2022-07-10T08:00:35;94902.06;;;25.60;42.44
70127;BME280;57491;42.694;23.314;2022-07-10T08:03:02;94889.34;;;25.86;41.99
70127;BME280;57491;42.694;23.314;2022-07-10T08:05:30;94893.25;;;25.94;41.50
70127;BME280;57491;42.694;23.314;2022-07-10T08:07:59;94892.34;;;26.08;41.92
70127;BME280;57491;42.694;23.314;2022-07-10T08:10:34;94890.56;;;26.33;40.36
70127;BME280;57491;42.694;23.314;2022-07-10T08:13:02;94890.69;;;26.46;41.25
70127;BME280;57491;42.694;23.314;2022-07-10T08:15:30;94891.78;;;26.45;39.80
70127;BME280;57491;42.694;23.314;2022-07-10T08:17:58;94879.16;;;26.27;39.57
70127;BME280;57491;42.694;23.314;2022-07-10T08:20:26;94875.16;;;26.30;39.76
70127;BME280;57491;42.694;23.314;2022-07-10T08:22:53;94900.66;;;26.64;39.11
70127;BME280;57491;42.694;23.314;2022-07-10T08:25:22;94889.41;;;26.68;39.51
70127;BME280;57491;42.694;23.314;2022-07-10T08:27:50;94893.25;;;26.80;38.70
70127;BME280;57491;42.694;23.314;2022-07-10T08:30:17;94898.50;;;26.90;39.47
70127;BME280;57491;42.694;23.314;2022-07-10T08:32:44;94886.25;;;26.37;38.50
70127;BME280;57491;42.694;23.314;2022-07-10T08:35:12;94901.84;;;26.25;39.25
70127;BME280;57491;42.694;23.314;2022-07-10T08:37:43;94844.97;;;26.05;38.98
70127;BME280;57491;42.694;23.314;2022-07-10T08:40:12;94908.47;;;26.56;38.44
70127;BME280;57491;42.694;23.314;2022-07-10T08:42:42;94906.94;;;26.97;37.97
70127;BME280;57491;42.694;23.314;2022-07-10T08:45:11;94903.03;;;27.14;36.09
70127;BME280;57491;42.694;23.314;2022-07-10T08:47:40;94893.03;;;27.24;36.11
70127;BME280;57491;42.694;23.314;2022-07-10T08:50:16;94906.88;;;27.45;36.39
70127;BME280;57491;42.694;23.314;2022-07-10T08:52:52;94889.56;;;27.24;36.07
70127;BME280;57491;42.694;23.314;2022-07-10T08:55:24;94895.19;;;26.98;37.53
70127;BME280;57491;42.694;23.314;2022-07-10T08:57:53;94887.69;;;27.24;37.01
70127;BME280;57491;42.694;23.314;2022-07-10T09:00:21;94889.63;;;27.19;37.30
70127;BME280;57491;42.694;23.314;2022-07-10T09:02:48;94891.81;;;27.12;37.39
70127;BME280;57491;42.694;23.314;2022-07-10T09:05:16;94887.44;;;27.21;36.63
70127;BME280;57491;42.694;23.314;2022-07-10T09:07:43;94881.69;;;26.90;36.69
70127;BME280;57491;42.694;23.314;2022-07-10T09:10:11;94888.84;;;26.94;37.28
70127;BME280;57491;42.694;23.314;2022-07-10T09:12:54;94883.44;;;26.76;37.16
70127;BME280;57491;42.694;23.314;2022-07-10T09:15:22;94878.88;;;26.52;37.93
70127;BME280;57491;42.694;23.314;2022-07-10T09:17:54;94882.66;;;26.51;38.48
70127;BME280;57491;42.694;23.314;2022-07-10T09:20:26;94884.75;;;26.78;38.42
70127;BME280;57491;42.694;23.314;2022-07-10T09:22:56;94856.50;;;27.01;36.79
70127;BME280;57491;42.694;23.314;2022-07-10T09:25:30;94867.31;;;27.10;36.08
70127;BME280;57491;42.694;23.314;2022-07-10T09:27:58;94869.03;;;27.00;37.03
70127;BME280;57491;42.694;23.314;2022-07-10T09:30:32;94872.44;;;27.06;36.76
70127;BME280;57491;42.694;23.314;2022-07-10T09:33:14;94872.84;;;26.94;37.76
70127;BME280;57491;42.694;23.314;2022-07-10T09:35:57;94875.19;;;27.20;36.84
70127;BME280;57491;42.694;23.314;2022-07-10T09:38:50;94861.03;;;27.94;36.07
70127;BME280;57491;42.694;23.314;2022-07-10T09:41:19;94864.56;;;28.81;34.95
70127;BME280;57491;42.694;23.314;2022-07-10T09:43:49;94857.16;;;29.42;33.61
70127;BME280;57491;42.694;23.314;2022-07-10T09:46:18;94856.28;;;29.19;32.67
70127;BME280;57491;42.694;23.314;2022-07-10T09:48:45;94847.50;;;28.91;33.07
70127;BME280;57491;42.694;23.314;2022-07-10T09:51:12;94852.84;;;29.05;33.79
70127;BME280;57491;42.694;23.314;2022-07-10T09:53:42;94848.13;;;29.38;32.05
70127;BME280;57491;42.694;23.314;2022-07-10T09:56:10;94854.81;;;29.85;30.64
70127;BME280;57491;42.694;23.314;2022-07-10T09:58:39;94853.16;;;29.89;31.34
70127;BME280;57491;42.694;23.314;2022-07-10T10:01:08;94846.91;;;29.57;32.62
70127;BME280;57491;42.694;23.314;2022-07-10T10:03:37;94843.19;;;29.45;31.52
70127;BME280;57491;42.694;23.314;2022-07-10T10:06:10;94851.94;;;29.59;32.30
70127;BME280;57491;42.694;23.314;2022-07-10T10:08:48;94840.72;;;29.93;30.50
70127;BME280;57491;42.694;23.314;2022-07-10T10:11:19;94853.34;;;29.79;30.02
70127;BME280;57491;42.694;23.314;2022-07-10T10:13:48;94841.50;;;29.71;31.03
70127;BME280;57491;42.694;23.314;2022-07-10T10:16:19;94845.44;;;29.74;29.56
70127;BME280;57491;42.694;23.314;2022-07-10T10:18:46;94842.81;;;29.82;30.41
70127;BME280;57491;42.694;23.314;2022-07-10T10:21:32;94843.31;;;30.06;30.41
70127;BME280;57491;42.694;23.314;2022-07-10T10:24:00;94847.22;;;29.42;31.51
70127;BME280;57491;42.694;23.314;2022-07-10T10:26:28;94845.72;;;28.87;32.92
70127;BME280;57491;42.694;23.314;2022-07-10T10:28:57;94849.91;;;28.19;33.44
70127;BME280;57491;42.694;23.314;2022-07-10T10:31:28;94845.31;;;28.06;34.20
70127;BME280;57491;42.694;23.314;2022-07-10T10:33:57;94844.59;;;27.87;33.95
70127;BME280;57491;42.694;23.314;2022-07-10T10:36:47;94838.22;;;27.50;34.49
70127;BME280;57491;42.694;23.314;2022-07-10T10:39:16;94834.56;;;27.41;34.57
70127;BME280;57491;42.694;23.314;2022-07-10T10:41:49;94833.66;;;27.32;35.10
70127;BME280;57491;42.694;23.314;2022-07-10T10:44:27;94797.22;;;27.04;34.90
70127;BME280;57491;42.694;23.314;2022-07-10T10:47:06;94828.31;;;27.14;35.23
70127;BME280;57491;42.694;23.314;2022-07-10T10:49:51;94834.88;;;26.55;36.67
70127;BME280;57491;42.694;23.314;2022-07-10T10:52:19;94839.94;;;26.56;36.11
70127;BME280;57491;42.694;23.314;2022-07-10T10:55:01;94818.41;;;26.48;35.88
70127;BME280;57491;42.694;23.314;2022-07-10T10:57:37;94828.47;;;26.56;35.99
70127;BME280;57491;42.694;23.314;2022-07-10T11:00:07;94807.91;;;26.80;36.41
70127;BME280;57491;42.694;23.314;2022-07-10T11:02:36;94824.03;;;27.13;35.87
70127;BME280;57491;42.694;23.314;2022-07-10T11:05:39;94825.63;;;27.32;34.76
70127;BME280;57491;42.694;23.314;2022-07-10T11:08:09;94818.84;;;27.21;35.13
70127;BME280;57491;42.694;23.314;2022-07-10T11:10:38;94819.34;;;27.42;35.37
70127;BME280;57491;42.694;23.314;2022-07-10T11:13:07;94814.69;;;27.85;34.98
70127;BME280;57491;42.694;23.314;2022-07-10T11:15:36;94795.38;;;27.88;34.21
70127;BME280;57491;42.694;23.314;2022-07-10T11:18:06;94811.06;;;28.08;34.21
70127;BME280;57491;42.694;23.314;2022-07-10T11:20:35;94811.34;;;28.07;33.92
70127;BME280;57491;42.694;23.314;2022-07-10T11:26:02;94814.53;;;28.09;34.32
70127;BME280;57491;42.694;23.314;2022-07-10T11:28:47;94813.22;;;27.41;35.16
70127;BME280;57491;42.694;23.314;2022-07-10T11:31:16;94814.44;;;27.12;36.17
70127;BME280;57491;42.694;23.314;2022-07-10T11:33:45;94819.19;;;26.96;36.48
70127;BME280;57491;42.694;23.314;2022-07-10T11:36:15;94816.16;;;27.02;36.23
70127;BME280;57491;42.694;23.314;2022-07-10T11:38:43;94807.16;;;27.36;36.38
70127;BME280;57491;42.694;23.314;2022-07-10T11:41:18;94808.34;;;27.81;35.77
70127;BME280;57491;42.694;23.314;2022-07-10T11:43:51;94808.28;;;28.00;35.07
70127;BME280;57491;42.694;23.314;2022-07-10T11:46:20;94816.41;;;28.08;34.95
70127;BME280;57491;42.694;23.314;2022-07-10T11:48:50;94812.72;;;28.36;34.07
70127;BME280;57491;42.694;23.314;2022-07-10T11:51:21;94810.94;;;28.46;33.35
70127;BME280;57491;42.694;23.314;2022-07-10T11:53:55;94815.28;;;28.69;32.04
70127;BME280;57491;42.694;23.314;2022-07-10T11:56:26;94803.31;;;28.94;32.15
70127;BME280;57491;42.694;23.314;2022-07-10T11:59:00;94800.00;;;28.97;31.78
70127;BME280;57491;42.694;23.314;2022-07-10T12:01:29;94780.19;;;28.98;30.56
70127;BME280;57491;42.694;23.314;2022-07-10T12:04:01;94800.25;;;28.73;31.41
70127;BME280;57491;42.694;23.314;2022-07-10T12:06:30;94803.69;;;28.32;32.68
70127;BME280;57491;42.694;23.314;2022-07-10T12:09:02;94811.63;;;27.91;32.65
70127;BME280;57491;42.694;23.314;2022-07-10T12:11:29;94812.69;;;27.77;33.06
70127;BME280;57491;42.694;23.314;2022-07-10T12:14:10;94816.19;;;27.59;33.49
70127;BME280;57491;42.694;23.314;2022-07-10T12:16:37;94808.84;;;27.96;33.70
70127;BME280;57491;42.694;23.314;2022-07-10T12:19:07;94813.69;;;28.13;32.67
70127;BME280;57491;42.694;23.314;2022-07-10T12:21:35;94817.63;;;28.16;32.42
70127;BME280;57491;42.694;23.314;2022-07-10T12:24:03;94810.44;;;28.30;32.23
70127;BME280;57491;42.694;23.314;2022-07-10T12:26:35;94809.16;;;28.41;31.87
70127;BME280;57491;42.694;23.314;2022-07-10T12:29:03;94814.19;;;27.96;31.52
70127;BME280;57491;42.694;23.314;2022-07-10T12:31:32;94803.34;;;27.42;32.19
70127;BME280;57491;42.694;23.314;2022-07-10T12:34:01;94805.44;;;27.26;32.72
70127;BME280;57491;42.694;23.314;2022-07-10T12:36:43;94809.16;;;27.25;32.86
70127;BME280;57491;42.694;23.314;2022-07-10T12:39:11;94800.47;;;27.20;32.87
70127;BME280;57491;42.694;23.314;2022-07-10T12:41:56;94813.28;;;27.18;33.69
70127;BME280;57491;42.694;23.314;2022-07-10T12:44:35;94815.03;;;27.46;33.15
70127;BME280;57491;42.694;23.314;2022-07-10T12:47:04;94812.25;;;27.70;32.57
70127;BME280;57491;42.694;23.314;2022-07-10T12:49:54;94811.88;;;28.09;31.53
70127;BME280;57491;42.694;23.314;2022-07-10T12:52:27;94809.34;;;28.31;30.71
70127;BME280;57491;42.694;23.314;2022-07-10T12:55:11;94804.50;;;28.47;30.29
70127;BME280;57491;42.694;23.314;2022-07-10T12:57:48;94792.50;;;28.44;29.38
70127;BME280;57491;42.694;23.314;2022-07-10T13:00:17;94804.09;;;28.53;29.13
70127;BME280;57491;42.694;23.314;2022-07-10T13:02:45;94794.19;;;28.40;28.47
70127;BME280;57491;42.694;23.314;2022-07-10T13:05:25;94810.25;;;28.54;28.37